Ek0 3 — SVAR6 — position and weather

sailwx.info

Track history (hours):
 
Tides and Currents Weather Stations Pressure Air Temp Water Temp Dewpoint Dewpoint Depression Visibility Wind Speed Wind Dir Waves Ship Positions

Ek0 3

Last reported at 2017-Sep-25 18:07 UTC. Time now 2017-Sep-26 02:10 UTC.
Position N 37°39' E 023°43'.

Length 88 m; draft 5.8 m.

Type: Tanker. MMSI: 240913000.

Date/timePositionNaut miles runAvg speedWind from/ knotsBaromVisibWave heightAir tempDewpointWater temp
2017-Sep-25 18:07N 37°39' E 023°43'1 8.9
2017-Sep-25 18:00N 37°40' E 023°42'5 9.8
2017-Sep-25 17:30N 37°45' E 023°40'5 9.4
2017-Sep-25 17:01N 37°49' E 023°37'5 9.0
2017-Sep-25 16:31N 37°53' E 023°36'4 7.9
2017-Sep-25 16:01N 37°57' E 023°35'3 6.7
2017-Sep-25 15:30N 37°60' E 023°33'1 2.8
2017-Sep-25 14:58N 38°01' E 023°32'0 0.2
2017-Sep-25 14:28N 38°01' E 023°32'0 0.1
2017-Sep-25 13:55N 38°01' E 023°32'0 0.1
2017-Sep-25 13:28N 38°01' E 023°32'0 0.0
2017-Sep-25 12:58N 38°01' E 023°32'0 0.0
2017-Sep-25 12:28N 38°01' E 023°32'0 0.0
2017-Sep-25 11:58N 38°01' E 023°32'0 0.0
2017-Sep-25 11:28N 38°01' E 023°32'0 0.0
2017-Sep-25 10:58N 38°01' E 023°32'0 0.0
2017-Sep-25 10:28N 38°01' E 023°32'0 0.1
2017-Sep-25 09:58N 38°01' E 023°32'0 0.1
2017-Sep-25 09:28N 38°01' E 023°32'0 0.0
2017-Sep-25 07:55N 38°01' E 023°32'0 0.0
2017-Sep-25 07:25N 38°01' E 023°32'0 0.0
2017-Sep-25 06:58N 38°01' E 023°32'0 0.0
2017-Sep-25 06:28N 38°01' E 023°32'0 0.0
2017-Sep-25 05:58N 38°01' E 023°32'0 0.0
2017-Sep-25 05:28N 38°01' E 023°32'0 0.0
2017-Sep-25 04:58N 38°01' E 023°32'0 0.0
2017-Sep-25 04:28N 38°01' E 023°32'0 0.0
2017-Sep-25 03:58N 38°01' E 023°32'0 0.0
2017-Sep-25 03:31N 38°01' E 023°32'0 0.0
2017-Sep-25 02:59N 38°01' E 023°32'0 0.0
2017-Sep-25 02:29N 38°01' E 023°32'0 0.0
2017-Sep-25 01:59N 38°01' E 023°32'0 0.0
2017-Sep-25 01:20N 38°01' E 023°32'0 0.0
2017-Sep-25 00:59N 38°01' E 023°32'0 0.0
2017-Sep-25 00:29N 38°01' E 023°32'0 0.0
2017-Sep-24 23:47N 38°01' E 023°32'0 0.0
2017-Sep-24 23:26N 38°01' E 023°32'0 0.0
2017-Sep-24 22:59N 38°01' E 023°32'0 0.0
2017-Sep-24 21:41N 38°01' E 023°32'0 0.0
2017-Sep-24 21:17N 38°01' E 023°32'0 0.0
2017-Sep-24 20:59N 38°01' E 023°32'0 0.0
2017-Sep-24 20:29N 38°01' E 023°32'0 0.0
2017-Sep-24 19:59N 38°01' E 023°32'0 0.0
2017-Sep-24 19:29N 38°01' E 023°32'0 0.0
2017-Sep-24 18:56N 38°01' E 023°32'0 0.0
2017-Sep-24 18:29N 38°01' E 023°32'0 0.0
2017-Sep-24 17:59N 38°01' E 023°32'0 0.0
2017-Sep-24 17:29N 38°01' E 023°32'0 0.1
2017-Sep-24 16:59N 38°01' E 023°32'0 0.0
2017-Sep-24 16:29N 38°01' E 023°32'0 0.0
2017-Sep-24 15:59N 38°01' E 023°32'0 0.0
2017-Sep-24 15:29N 38°01' E 023°32'0 0.0
2017-Sep-24 14:59N 38°01' E 023°32'0 0.1
2017-Sep-24 14:26N 38°01' E 023°32'0 0.0
2017-Sep-24 13:59N 38°01' E 023°32'0 0.0
2017-Sep-24 13:29N 38°01' E 023°32'0 0.0
2017-Sep-24 12:59N 38°01' E 023°32'0 0.0
2017-Sep-24 12:29N 38°01' E 023°32'0 0.0
2017-Sep-24 11:59N 38°01' E 023°32'0 0.1
2017-Sep-24 11:29N 38°01' E 023°32'0 0.2
2017-Sep-24 10:56N 38°01' E 023°32'0 0.0
2017-Sep-24 10:29N 38°01' E 023°32'0 0.0
2017-Sep-24 09:56N 38°01' E 023°32'0 0.0
2017-Sep-24 09:29N 38°01' E 023°32'0 0.0
2017-Sep-24 08:59N 38°01' E 023°32'0 0.0
2017-Sep-24 08:26N 38°01' E 023°32'0 0.0
2017-Sep-24 07:56N 38°01' E 023°32'0 0.0
2017-Sep-24 07:29N 38°01' E 023°32'0 0.0
2017-Sep-24 06:59N 38°01' E 023°32'0 0.0
2017-Sep-24 06:29N 38°01' E 023°32'0 0.0
2017-Sep-24 05:56N 38°01' E 023°32'0 0.0
2017-Sep-24 05:29N 38°01' E 023°32'0 0.0
2017-Sep-24 04:41N 38°01' E 023°32'0 0.1
2017-Sep-24 04:29N 38°01' E 023°32'0 0.1
2017-Sep-24 03:59N 38°01' E 023°32'0 0.1
2017-Sep-24 03:31N 38°01' E 023°32'3 5.6
2017-Sep-24 03:00N 38°02' E 023°36'0 0.2
2017-Sep-24 02:30N 38°02' E 023°36'0 0.0
2017-Sep-24 02:00N 38°02' E 023°36'0 0.0
2017-Sep-24 01:30N 38°02' E 023°36'0 0.0
2017-Sep-24 01:00N 38°02' E 023°36'0 0.0
2017-Sep-24 00:30N 38°02' E 023°36'0 0.0
2017-Sep-24 00:00N 38°02' E 023°36'0 0.0
2017-Sep-23 23:30N 38°02' E 023°36'0 0.0
2017-Sep-23 23:00N 38°02' E 023°36'0 0.0
2017-Sep-23 22:30N 38°02' E 023°36'0 0.0
2017-Sep-23 22:00N 38°02' E 023°36'0 0.0
2017-Sep-23 21:30N 38°02' E 023°36'0 0.0
2017-Sep-23 20:57N 38°02' E 023°36'0 0.0
2017-Sep-23 20:30N 38°02' E 023°36'0 0.0
2017-Sep-23 19:45N 38°02' E 023°36'  
2017-Sep-20 17:09N 37°39' E 023°43'1 9.3
2017-Sep-20 17:00N 37°40' E 023°42'5 9.6
2017-Sep-20 16:30N 37°44' E 023°40'5 9.3
2017-Sep-20 16:00N 37°49' E 023°37'4 7.9
2017-Sep-20 15:31N 37°52' E 023°35'3 6.0
2017-Sep-20 15:00N 37°55' E 023°34'0 0.0
2017-Sep-20 14:00N 37°55' E 023°34'0 0.0
2017-Sep-20 13:30N 37°55' E 023°34'0 0.0
2017-Sep-20 13:00N 37°55' E 023°34'0 0.0
2017-Sep-20 12:30N 37°55' E 023°34'0 0.2
2017-Sep-20 12:01N 37°55' E 023°34'3 5.4
2017-Sep-20 11:30N 37°52' E 023°33'3 6.3
2017-Sep-20 11:00N 37°50' E 023°30'4 8.5
2017-Sep-20 10:30N 37°51' E 023°24'4 8.7
2017-Sep-20 10:00N 37°52' E 023°19'5 9.3
2017-Sep-20 09:30N 37°52' E 023°13'5 9.1
2017-Sep-20 08:59N 37°54' E 023°07'2 0.2
2017-Sep-19 21:35N 37°55' E 023°05'0 0.0
2017-Sep-19 21:20N 37°55' E 023°05'0 0.0
2017-Sep-19 20:59N 37°55' E 023°05'0 0.0
2017-Sep-19 20:26N 37°55' E 023°05'0 0.0
2017-Sep-19 19:59N 37°55' E 023°05'0 0.0
2017-Sep-19 19:29N 37°55' E 023°05'0 0.0
2017-Sep-19 17:44N 37°55' E 023°05'0 0.0
2017-Sep-19 17:14N 37°55' E 023°05'0 0.0
2017-Sep-19 16:44N 37°55' E 023°05'0 0.0
2017-Sep-19 15:29N 37°55' E 023°05'0 0.0
2017-Sep-19 12:04N 37°55' E 023°05'0 0.0
2017-Sep-19 12:00N 37°55' E 023°05'0 0.0
2017-Sep-19 11:19N 37°55' E 023°05'0 0.0
2017-Sep-19 10:40N 37°55' E 023°05'0 0.0
2017-Sep-19 10:23N 37°55' E 023°05'1 1.2
2017-Sep-19 09:54N 37°55' E 023°06'3 6.2
2017-Sep-19 09:29N 37°54' E 023°09'4 7.9
2017-Sep-19 08:59N 37°53' E 023°14'5 8.4
2017-Sep-19 08:27N 37°52' E 023°19'4 8.8
2017-Sep-19 08:00N 37°51' E 023°24'4 9.0
2017-Sep-19 07:30N 37°50' E 023°30'4 8.9
2017-Sep-19 07:00N 37°50' E 023°35'4 7.8
2017-Sep-19 06:30N 37°49' E 023°40'4 8.7
2017-Sep-19 06:00N 37°45' E 023°42'4 8.4
2017-Sep-19 05:30N 37°42' E 023°45'4 8.8
2017-Sep-19 05:00N 37°39' E 023°49'5 9.2
2017-Sep-19 04:30N 37°36' E 023°53'4 8.8
2017-Sep-19 04:00N 37°32' E 023°57'9 9.1
2017-Sep-19 03:04N 37°26' E 024°04'1 8.8
2017-Sep-19 02:56N 37°25' E 024°05'6 8.6
2017-Sep-19 02:12N 37°20' E 024°10'2 8.8
2017-Sep-19 01:59N 37°19' E 024°11'24 9.2
2017-Sep-18 23:21N 36°59' E 024°30'3 9.3
2017-Sep-18 23:00N 36°57' E 024°32'7 9.4
2017-Sep-18 22:15N 36°51' E 024°38'  
2017-Sep-16 10:42N 35°47' E 024°49'2 9.7
2017-Sep-16 10:30N 35°49' E 024°47'5 9.7
2017-Sep-16 10:00N 35°53' E 024°44'6 9.5
2017-Sep-16 09:24N 35°58' E 024°40'4 9.4
2017-Sep-16 09:00N 36°01' E 024°38'5 9.4
2017-Sep-16 08:30N 36°05' E 024°35'5 9.3
2017-Sep-16 08:00N 36°09' E 024°32'83 8.2
2017-Sep-15 21:52N 37°25' E 023°50'3 8.4
2017-Sep-15 21:30N 37°28' E 023°49'4 8.8
2017-Sep-15 21:00N 37°32' E 023°46'4 8.9
2017-Sep-15 20:30N 37°36' E 023°44'4 8.6
2017-Sep-15 20:00N 37°40' E 023°42'4 8.6
2017-Sep-15 19:29N 37°44' E 023°40'4 8.5
2017-Sep-15 19:00N 37°48' E 023°38'4 8.3
2017-Sep-15 18:30N 37°52' E 023°37'  
Track history (hours):
 
Tides and Currents Weather Stations Pressure Air Temp Water Temp Dewpoint Dewpoint Depression Visibility Wind Speed Wind Dir Waves Ship Positions

Ek0 3

Last reported at 2017-Sep-25 18:07 UTC. Time now 2017-Sep-26 02:10 UTC.
Position N 37°39' E 023°43'.

Length 88 m; draft 5.8 m.

Type: Tanker. MMSI: 240913000.

Date/timePositionNaut miles runAvg speedWind from/ knotsBaromVisibWave heightAir tempDewpointWater temp
2017-Sep-25 18:07N 37°39' E 023°43'1 8.9
2017-Sep-25 18:00N 37°40' E 023°42'5 9.8
2017-Sep-25 17:30N 37°45' E 023°40'5 9.4
2017-Sep-25 17:01N 37°49' E 023°37'5 9.0
2017-Sep-25 16:31N 37°53' E 023°36'4 7.9
2017-Sep-25 16:01N 37°57' E 023°35'3 6.7
2017-Sep-25 15:30N 37°60' E 023°33'1 2.8
2017-Sep-25 14:58N 38°01' E 023°32'0 0.2
2017-Sep-25 14:28N 38°01' E 023°32'0 0.1
2017-Sep-25 13:55N 38°01' E 023°32'0 0.1
2017-Sep-25 13:28N 38°01' E 023°32'0 0.0
2017-Sep-25 12:58N 38°01' E 023°32'0 0.0
2017-Sep-25 12:28N 38°01' E 023°32'0 0.0
2017-Sep-25 11:58N 38°01' E 023°32'0 0.0
2017-Sep-25 11:28N 38°01' E 023°32'0 0.0
2017-Sep-25 10:58N 38°01' E 023°32'0 0.0
2017-Sep-25 10:28N 38°01' E 023°32'0 0.1
2017-Sep-25 09:58N 38°01' E 023°32'0 0.1
2017-Sep-25 09:28N 38°01' E 023°32'0 0.0
2017-Sep-25 07:55N 38°01' E 023°32'0 0.0
2017-Sep-25 07:25N 38°01' E 023°32'0 0.0
2017-Sep-25 06:58N 38°01' E 023°32'0 0.0
2017-Sep-25 06:28N 38°01' E 023°32'0 0.0
2017-Sep-25 05:58N 38°01' E 023°32'0 0.0
2017-Sep-25 05:28N 38°01' E 023°32'0 0.0
2017-Sep-25 04:58N 38°01' E 023°32'0 0.0
2017-Sep-25 04:28N 38°01' E 023°32'0 0.0
2017-Sep-25 03:58N 38°01' E 023°32'0 0.0
2017-Sep-25 03:31N 38°01' E 023°32'0 0.0
2017-Sep-25 02:59N 38°01' E 023°32'0 0.0
2017-Sep-25 02:29N 38°01' E 023°32'0 0.0
2017-Sep-25 01:59N 38°01' E 023°32'0 0.0
2017-Sep-25 01:20N 38°01' E 023°32'0 0.0
2017-Sep-25 00:59N 38°01' E 023°32'0 0.0
2017-Sep-25 00:29N 38°01' E 023°32'0 0.0
2017-Sep-24 23:47N 38°01' E 023°32'0 0.0
2017-Sep-24 23:26N 38°01' E 023°32'0 0.0
2017-Sep-24 22:59N 38°01' E 023°32'0 0.0
2017-Sep-24 21:41N 38°01' E 023°32'0 0.0
2017-Sep-24 21:17N 38°01' E 023°32'0 0.0
2017-Sep-24 20:59N 38°01' E 023°32'0 0.0
2017-Sep-24 20:29N 38°01' E 023°32'0 0.0
2017-Sep-24 19:59N 38°01' E 023°32'0 0.0
2017-Sep-24 19:29N 38°01' E 023°32'0 0.0
2017-Sep-24 18:56N 38°01' E 023°32'0 0.0
2017-Sep-24 18:29N 38°01' E 023°32'0 0.0
2017-Sep-24 17:59N 38°01' E 023°32'0 0.0
2017-Sep-24 17:29N 38°01' E 023°32'0 0.1
2017-Sep-24 16:59N 38°01' E 023°32'0 0.0
2017-Sep-24 16:29N 38°01' E 023°32'0 0.0
2017-Sep-24 15:59N 38°01' E 023°32'0 0.0
2017-Sep-24 15:29N 38°01' E 023°32'0 0.0
2017-Sep-24 14:59N 38°01' E 023°32'0 0.1
2017-Sep-24 14:26N 38°01' E 023°32'0 0.0
2017-Sep-24 13:59N 38°01' E 023°32'0 0.0
2017-Sep-24 13:29N 38°01' E 023°32'0 0.0
2017-Sep-24 12:59N 38°01' E 023°32'0 0.0
2017-Sep-24 12:29N 38°01' E 023°32'0 0.0
2017-Sep-24 11:59N 38°01' E 023°32'0 0.1
2017-Sep-24 11:29N 38°01' E 023°32'0 0.2
2017-Sep-24 10:56N 38°01' E 023°32'0 0.0
2017-Sep-24 10:29N 38°01' E 023°32'0 0.0
2017-Sep-24 09:56N 38°01' E 023°32'0 0.0
2017-Sep-24 09:29N 38°01' E 023°32'0 0.0
2017-Sep-24 08:59N 38°01' E 023°32'0 0.0
2017-Sep-24 08:26N 38°01' E 023°32'0 0.0
2017-Sep-24 07:56N 38°01' E 023°32'0 0.0
2017-Sep-24 07:29N 38°01' E 023°32'0 0.0
2017-Sep-24 06:59N 38°01' E 023°32'0 0.0
2017-Sep-24 06:29N 38°01' E 023°32'0 0.0
2017-Sep-24 05:56N 38°01' E 023°32'0 0.0
2017-Sep-24 05:29N 38°01' E 023°32'0 0.0
2017-Sep-24 04:41N 38°01' E 023°32'0 0.1
2017-Sep-24 04:29N 38°01' E 023°32'0 0.1
2017-Sep-24 03:59N 38°01' E 023°32'0 0.1
2017-Sep-24 03:31N 38°01' E 023°32'3 5.6
2017-Sep-24 03:00N 38°02' E 023°36'0 0.2
2017-Sep-24 02:30N 38°02' E 023°36'0 0.0
2017-Sep-24 02:00N 38°02' E 023°36'0 0.0
2017-Sep-24 01:30N 38°02' E 023°36'0 0.0
2017-Sep-24 01:00N 38°02' E 023°36'0 0.0
2017-Sep-24 00:30N 38°02' E 023°36'0 0.0
2017-Sep-24 00:00N 38°02' E 023°36'0 0.0
2017-Sep-23 23:30N 38°02' E 023°36'0 0.0
2017-Sep-23 23:00N 38°02' E 023°36'0 0.0
2017-Sep-23 22:30N 38°02' E 023°36'0 0.0
2017-Sep-23 22:00N 38°02' E 023°36'0 0.0
2017-Sep-23 21:30N 38°02' E 023°36'0 0.0
2017-Sep-23 20:57N 38°02' E 023°36'0 0.0
2017-Sep-23 20:30N 38°02' E 023°36'0 0.0
2017-Sep-23 19:45N 38°02' E 023°36'  
2017-Sep-20 17:09N 37°39' E 023°43'1 9.3
2017-Sep-20 17:00N 37°40' E 023°42'5 9.6
2017-Sep-20 16:30N 37°44' E 023°40'5 9.3
2017-Sep-20 16:00N 37°49' E 023°37'4 7.9
2017-Sep-20 15:31N 37°52' E 023°35'3 6.0
2017-Sep-20 15:00N 37°55' E 023°34'0 0.0
2017-Sep-20 14:00N 37°55' E 023°34'0 0.0
2017-Sep-20 13:30N 37°55' E 023°34'0 0.0
2017-Sep-20 13:00N 37°55' E 023°34'0 0.0
2017-Sep-20 12:30N 37°55' E 023°34'0 0.2
2017-Sep-20 12:01N 37°55' E 023°34'3 5.4
2017-Sep-20 11:30N 37°52' E 023°33'3 6.3
2017-Sep-20 11:00N 37°50' E 023°30'4 8.5
2017-Sep-20 10:30N 37°51' E 023°24'4 8.7
2017-Sep-20 10:00N 37°52' E 023°19'5 9.3
2017-Sep-20 09:30N 37°52' E 023°13'5 9.1
2017-Sep-20 08:59N 37°54' E 023°07'2 0.2
2017-Sep-19 21:35N 37°55' E 023°05'0 0.0
2017-Sep-19 21:20N 37°55' E 023°05'0 0.0
2017-Sep-19 20:59N 37°55' E 023°05'0 0.0
2017-Sep-19 20:26N 37°55' E 023°05'0 0.0
2017-Sep-19 19:59N 37°55' E 023°05'0 0.0
2017-Sep-19 19:29N 37°55' E 023°05'0 0.0
2017-Sep-19 17:44N 37°55' E 023°05'0 0.0
2017-Sep-19 17:14N 37°55' E 023°05'0 0.0
2017-Sep-19 16:44N 37°55' E 023°05'0 0.0
2017-Sep-19 15:29N 37°55' E 023°05'0 0.0
2017-Sep-19 12:04N 37°55' E 023°05'0 0.0
2017-Sep-19 12:00N 37°55' E 023°05'0 0.0
2017-Sep-19 11:19N 37°55' E 023°05'0 0.0
2017-Sep-19 10:40N 37°55' E 023°05'0 0.0
2017-Sep-19 10:23N 37°55' E 023°05'1 1.2
2017-Sep-19 09:54N 37°55' E 023°06'3 6.2
2017-Sep-19 09:29N 37°54' E 023°09'4 7.9
2017-Sep-19 08:59N 37°53' E 023°14'5 8.4
2017-Sep-19 08:27N 37°52' E 023°19'4 8.8
2017-Sep-19 08:00N 37°51' E 023°24'4 9.0
2017-Sep-19 07:30N 37°50' E 023°30'4 8.9
2017-Sep-19 07:00N 37°50' E 023°35'4 7.8
2017-Sep-19 06:30N 37°49' E 023°40'4 8.7
2017-Sep-19 06:00N 37°45' E 023°42'4 8.4
2017-Sep-19 05:30N 37°42' E 023°45'4 8.8
2017-Sep-19 05:00N 37°39' E 023°49'5 9.2
2017-Sep-19 04:30N 37°36' E 023°53'4 8.8
2017-Sep-19 04:00N 37°32' E 023°57'9 9.1
2017-Sep-19 03:04N 37°26' E 024°04'1 8.8
2017-Sep-19 02:56N 37°25' E 024°05'6 8.6
2017-Sep-19 02:12N 37°20' E 024°10'2 8.8
2017-Sep-19 01:59N 37°19' E 024°11'24 9.2
2017-Sep-18 23:21N 36°59' E 024°30'3 9.3
2017-Sep-18 23:00N 36°57' E 024°32'7 9.4
2017-Sep-18 22:15N 36°51' E 024°38'  
2017-Sep-16 10:42N 35°47' E 024°49'2 9.7
2017-Sep-16 10:30N 35°49' E 024°47'5 9.7
2017-Sep-16 10:00N 35°53' E 024°44'6 9.5
2017-Sep-16 09:24N 35°58' E 024°40'4 9.4
2017-Sep-16 09:00N 36°01' E 024°38'5 9.4
2017-Sep-16 08:30N 36°05' E 024°35'5 9.3
2017-Sep-16 08:00N 36°09' E 024°32'83 8.2
2017-Sep-15 21:52N 37°25' E 023°50'3 8.4
2017-Sep-15 21:30N 37°28' E 023°49'4 8.8
2017-Sep-15 21:00N 37°32' E 023°46'4 8.9
2017-Sep-15 20:30N 37°36' E 023°44'4 8.6
2017-Sep-15 20:00N 37°40' E 023°42'4 8.6
2017-Sep-15 19:29N 37°44' E 023°40'4 8.5
2017-Sep-15 19:00N 37°48' E 023°38'4 8.3
2017-Sep-15 18:30N 37°52' E 023°37'  

Dump ship's entire track history